NCAR-RAP Real-Time Weather Data

Output produced by METARs form (20 February 2019  17:27 UTC)
found at http://weather.rap.ucar.edu/surface/
 
RJOO 201100Z 32015KT 9999 FEW020 10/03 Q1019 RMK 1CU020 A3010
RJOO 201000Z 32010KT 9999 FEW020 BKN050 11/05 Q1018 RMK 1CU020 5SC050 A3007
RJOO 200900Z 36007KT 9999 FEW020 BKN045 12/06 Q1017 RMK 1CU020 5CU045 A3005
RJOO 200800Z 35007KT 310V040 9999 FEW020 SCT060 13/06 Q1017 RMK 1CU020 4SC060 A3003
RJOO 200700Z 33008KT 9999 FEW015 BKN040 12/08 Q1016 RMK 1CU015 5CU040 A3001
RJOO 200600Z 35010KT 9999 FEW015 BKN035 14/08 Q1015 RMK 1CU015 6CU035 A2998 MOD TURB OBS AT 0530Z 6NM E ITE BTN 8000FT AND 10000FT IN CMB E190 AND MOD TURB OBS AT 0542Z 10NM S ITE BTN 7000FT AND 9000FT IN CMB B763
RJOO 200540Z 34010KT 9999 FEW015 BKN030 14/08 Q1015 RMK 1CU015 6CU030 A2998
RJOO 200500Z 24006KT 200V280 9999 FEW015 BKN025 15/10 Q1015 RMK 1CU015 6CU025 A2998
RJOO 200400Z 22009KT 190V260 9999 FEW015 SCT025 BKN060 16/11 Q1015 RMK 1CU015 3CU025 5SC060 A2998
RJOO 200300Z 22007KT 9999 FEW008 BKN020 BKN070 15/11 Q1015 RMK 1ST008 5CU020 6AC070 A2999
RJOO 200200Z VRB02KT 7000 FEW006 BKN020 BKN070 15/12 Q1016 RMK 1ST006 5CU020 6AC070 A3000
RJOO 200100Z VRB01KT 6000 BR FEW006 SCT015 BKN070 14/12 Q1016 RMK 1ST006 3CU015 5AC070 A3002
RJOO 200000Z VRB01KT 5000 BR FEW006 SCT015 BKN060 13/12 Q1016 RMK 1ST006 4CU015 5SC060 A3001
RJOO 192334Z VRB01KT 5000 BR FEW006 SCT015 BKN060 13/12 Q1016 RMK 1ST006 3CU015 6SC060 A3002
RJOO 192300Z VRB01KT 4500 BR FEW006 SCT010 BKN060 12/11 Q1016 RMK 1ST006 3ST010 6SC060 A3001
RJOO 192220Z VRB02KT 4000 BR FEW004 SCT006 BKN060 12/11 Q1016 RMK 1ST004 3ST006 5SC060 A3001
RJOO 192200Z 16004KT 130V200 3000 BR FEW004 SCT006 BKN060 12/12 Q1015 RMK 1ST004 3ST006 5SC060 A2999
RJOO 192136Z 34004KT 3000 BR FEW004 SCT007 BKN050 11/11 Q1015 RMK 1ST004 3ST007 5SC050 A2998
RJOO 192124Z VRB01KT 3500 BR FEW004 SCT007 BKN015 11/11 Q1015 RMK 1ST004 4ST007 5CU015 A2998
RJOO 192100Z 00000KT 3500 BR FEW004 BKN007 BKN010 11/11 Q1015 RMK 1ST004 5ST007 6ST010 A2997
RJOO 192000Z VRB02KT 4000 BR FEW004 BKN010 BKN050 11/11 Q1015 RMK 1ST004 5ST010 6SC050 A2998
RJOO 191100Z VRB03KT 9999 FEW008 BKN015 12/10 Q1013 RMK 1ST008 6CU015 A2993
RJOO 191000Z VRB02KT 9999 FEW008 BKN020 12/10 Q1013 RMK 1ST008 6CU020 A2992
RJOO 190900Z 05008KT 9999 FEW008 SCT025 BKN030 11/10 Q1012 RMK 1ST008 3CU025 5CU030 A2990
RJOO 190800Z 06009KT 7000 -SHRA FEW003 SCT030 BKN070 10/09 Q1013 RMK 1ST003 3CU030 5AC070 A2991
RJOO 190750Z 07011KT 040V120 5000 -SHRA BR FEW003 SCT030 BKN070 10/09 Q1013 RMK 1ST003 3CU030 5AC070 A2992
RJOO 190734Z 07013KT 4500 -SHRA BR FEW003 SCT030 BKN070 10/09 Q1013 RMK 1ST003 3CU030 5AC070 A2991 P/FR
RJOO 190700Z 07012KT 3500 R32R/2000N R32L/P2000N SHRA BR FEW003 SCT035 BKN050 10/09 Q1014 RMK 1ST003 3CU035 6SC050 A2997
RJOO 190626Z 07010KT 4000 SHRA BR FEW003 SCT035 BKN070 10/09 Q1014 RMK 1ST003 3CU035 6AC070 A2997
RJOO 190600Z 06008KT 030V090 6000 -RA BR FEW003 SCT070 OVC090 10/09 Q1015 RMK 1ST003 3AC070 8AS090 A2998
RJOO 190500Z 07010KT 7000 -RA FEW003 SCT015 BKN040 09/08 Q1016 RMK 1ST003 4CU015 7SC040 A3000
RJOO 190400Z 08011KT 5000 -RA BR FEW003 BKN025 BKN035 09/08 Q1017 RMK 1ST003 5CU025 7SC035 A3005
RJOO 190325Z 06008KT 030V100 5000 -RA BR FEW006 BKN020 BKN030 08/07 Q1018 RMK 1ST006 5CU020 7SC030 A3008
RJOO 190300Z 06009KT 4500 -RA BR FEW004 BKN015 BKN030 08/07 Q1019 RMK 1ST004 5CU015 7SC030 A3010
RJOO 190235Z 06011KT 6000 -RA BR FEW004 BKN012 BKN030 08/07 Q1020 RMK 1ST004 5ST012 7SC030 A3012
RJOO 190225Z 06012KT 020V090 4500 -RA BR FEW004 BKN012 BKN030 08/07 Q1019 RMK 1ST004 5ST012 7SC030 A3011
RJOO 190200Z 07012KT 020V090 6000 -RA BR FEW004 BKN030 BKN045 08/06 Q1020 RMK 1ST004 5CU030 7SC045 A3014
RJOO 190100Z 07011KT 9999 -RA FEW006 BKN030 BKN045 07/06 Q1021 RMK 1ST006 5CU030 7SC045 A3016
RJOO 190040Z 07011KT 8000 -RA FEW006 BKN030 BKN040 07/06 Q1022 RMK 1ST006 5CU030 7SC040 A3018
RJOO 190019Z 07009KT 030V100 6000 RA BR FEW006 BKN030 BKN040 07/06 Q1022 RMK 1ST006 5CU030 7SC040 A3018
RJOO 190000Z 06008KT 6000 -RA BR FEW006 BKN030 BKN040 07/06 Q1023 RMK 1ST006 5CU030 7SC040 A3021
RJOO 182300Z 07007KT 010V090 6000 -RA BR FEW006 BKN030 BKN040 07/05 Q1023 RMK 1ST006 5CU030 6SC040 A3022
RJOO 182200Z 06005KT 020V090 7000 -RA FEW010 BKN030 BKN045 07/05 Q1023 RMK 1ST010 5CU030 6SC045 A3023
RJOO 182100Z 32003KT 300V020 9999 -RA FEW010 BKN030 OVC070 06/05 Q1024 RMK 1ST010 5CU030 8AS070 A3025
RJOO 182000Z 32004KT 9999 -RA FEW010 SCT030 OVC070 06/03 Q1024 RMK 1ST010 3CU030 8AS070 A3025
RJOO 181100Z 32003KT 9999 FEW030 SCT140 BKN/// 08/01 Q1026
RJOO 181000Z 31002KT 9999 FEW030 BKN/// 09/M00 Q1025 RMK 1CU030 A3028
RJOO 180900Z 24004KT 9999 FEW030 BKN/// 10/M00 Q1025 RMK 1CU030 A3027
RJOO 180800Z 22005KT 180V270 9999 FEW030 BKN/// 11/M01 Q1024 RMK 1CU030 A3025
RJOO 180700Z VRB02KT 9999 FEW030 BKN/// 12/M01 Q1024 RMK 1CU030 A3026
RJOO 180600Z VRB03KT 9999 FEW030 BKN/// 12/M02 Q1025 RMK 1CU030 A3027